sensor_id;sensor_type;location;lat;lon;timestamp;temperature;humidity
4637;DHT22;2331;48.806;9.140;2023-04-24T00:00:14;14.00;1.00
4637;DHT22;2331;48.806;9.140;2023-04-24T00:02:42;14.00;1.00
4637;DHT22;2331;48.806;9.140;2023-04-24T00:05:12;14.00;1.00
4637;DHT22;2331;48.806;9.140;2023-04-24T00:07:39;13.90;1.00
4637;DHT22;2331;48.806;9.140;2023-04-24T00:10:07;13.90;1.00
4637;DHT22;2331;48.806;9.140;2023-04-24T00:12:34;13.90;1.00
4637;DHT22;2331;48.806;9.140;2023-04-24T00:15:00;14.00;1.00
4637;DHT22;2331;48.806;9.140;2023-04-24T00:17:29;14.00;1.00
4637;DHT22;2331;48.806;9.140;2023-04-24T00:19:56;13.90;1.00
4637;DHT22;2331;48.806;9.140;2023-04-24T00:22:24;14.00;1.00
4637;DHT22;2331;48.806;9.140;2023-04-24T00:24:50;13.90;1.00
4637;DHT22;2331;48.806;9.140;2023-04-24T00:27:17;13.90;1.00
4637;DHT22;2331;48.806;9.140;2023-04-24T00:29:44;13.90;1.00
4637;DHT22;2331;48.806;9.140;2023-04-24T00:32:11;13.90;1.00
4637;DHT22;2331;48.806;9.140;2023-04-24T00:34:39;13.90;1.00
4637;DHT22;2331;48.806;9.140;2023-04-24T00:37:06;13.80;1.00
4637;DHT22;2331;48.806;9.140;2023-04-24T00:39:33;13.90;1.00
4637;DHT22;2331;48.806;9.140;2023-04-24T00:41:59;13.90;1.00
4637;DHT22;2331;48.806;9.140;2023-04-24T00:44:27;13.90;1.00
4637;DHT22;2331;48.806;9.140;2023-04-24T00:46:54;14.00;1.00
4637;DHT22;2331;48.806;9.140;2023-04-24T00:49:22;14.00;1.00
4637;DHT22;2331;48.806;9.140;2023-04-24T00:51:50;14.10;1.00
4637;DHT22;2331;48.806;9.140;2023-04-24T00:54:17;14.10;1.00
4637;DHT22;2331;48.806;9.140;2023-04-24T00:56:44;14.10;1.00
4637;DHT22;2331;48.806;9.140;2023-04-24T00:59:12;14.20;1.00
4637;DHT22;2331;48.806;9.140;2023-04-24T01:01:39;14.10;1.00
4637;DHT22;2331;48.806;9.140;2023-04-24T01:04:07;14.20;1.00
4637;DHT22;2331;48.806;9.140;2023-04-24T01:06:38;14.20;1.00
4637;DHT22;2331;48.806;9.140;2023-04-24T01:09:07;14.20;1.00
4637;DHT22;2331;48.806;9.140;2023-04-24T01:11:34;14.20;1.00
4637;DHT22;2331;48.806;9.140;2023-04-24T01:14:01;14.20;1.00
4637;DHT22;2331;48.806;9.140;2023-04-24T01:16:28;14.20;1.00
4637;DHT22;2331;48.806;9.140;2023-04-24T01:18:55;14.30;1.00
4637;DHT22;2331;48.806;9.140;2023-04-24T01:21:23;14.30;1.00
4637;DHT22;2331;48.806;9.140;2023-04-24T01:23:55;14.30;1.00
4637;DHT22;2331;48.806;9.140;2023-04-24T01:26:22;14.30;1.00
4637;DHT22;2331;48.806;9.140;2023-04-24T01:28:51;14.30;1.00
4637;DHT22;2331;48.806;9.140;2023-04-24T01:31:18;14.20;1.00
4637;DHT22;2331;48.806;9.140;2023-04-24T01:33:45;14.30;1.00
4637;DHT22;2331;48.806;9.140;2023-04-24T01:36:12;14.20;1.00
4637;DHT22;2331;48.806;9.140;2023-04-24T01:38:40;14.20;1.00
4637;DHT22;2331;48.806;9.140;2023-04-24T01:41:08;14.20;1.00
4637;DHT22;2331;48.806;9.140;2023-04-24T01:43:35;14.20;1.00
4637;DHT22;2331;48.806;9.140;2023-04-24T01:46:01;14.20;1.00
4637;DHT22;2331;48.806;9.140;2023-04-24T01:48:28;14.10;1.00
4637;DHT22;2331;48.806;9.140;2023-04-24T01:50:56;14.20;1.00
4637;DHT22;2331;48.806;9.140;2023-04-24T01:53:23;14.20;1.00
4637;DHT22;2331;48.806;9.140;2023-04-24T01:55:50;14.20;1.00
4637;DHT22;2331;48.806;9.140;2023-04-24T01:58:18;14.20;1.00
4637;DHT22;2331;48.806;9.140;2023-04-24T02:00:45;14.10;1.00
4637;DHT22;2331;48.806;9.140;2023-04-24T02:03:12;14.10;1.00
4637;DHT22;2331;48.806;9.140;2023-04-24T02:05:38;14.10;1.00
4637;DHT22;2331;48.806;9.140;2023-04-24T02:08:05;14.10;1.00
4637;DHT22;2331;48.806;9.140;2023-04-24T02:10:32;14.10;1.00
4637;DHT22;2331;48.806;9.140;2023-04-24T02:12:59;14.10;1.00
4637;DHT22;2331;48.806;9.140;2023-04-24T02:15:27;14.10;1.00
4637;DHT22;2331;48.806;9.140;2023-04-24T02:17:54;14.10;1.00
4637;DHT22;2331;48.806;9.140;2023-04-24T02:20:21;14.10;1.00
4637;DHT22;2331;48.806;9.140;2023-04-24T02:22:47;14.10;1.00
4637;DHT22;2331;48.806;9.140;2023-04-24T02:25:14;14.00;1.00
4637;DHT22;2331;48.806;9.140;2023-04-24T02:27:41;14.10;1.00
4637;DHT22;2331;48.806;9.140;2023-04-24T02:30:09;14.20;1.00
4637;DHT22;2331;48.806;9.140;2023-04-24T02:32:37;14.00;1.00
4637;DHT22;2331;48.806;9.140;2023-04-24T02:35:05;14.00;1.00
4637;DHT22;2331;48.806;9.140;2023-04-24T02:37:32;14.10;1.00
4637;DHT22;2331;48.806;9.140;2023-04-24T02:39:58;14.00;1.00
4637;DHT22;2331;48.806;9.140;2023-04-24T02:42:25;14.00;1.00
4637;DHT22;2331;48.806;9.140;2023-04-24T02:44:52;14.00;1.00
4637;DHT22;2331;48.806;9.140;2023-04-24T02:47:19;14.00;1.00
4637;DHT22;2331;48.806;9.140;2023-04-24T02:49:47;13.90;1.00
4637;DHT22;2331;48.806;9.140;2023-04-24T02:52:13;13.80;1.00
4637;DHT22;2331;48.806;9.140;2023-04-24T02:54:42;13.80;1.00
4637;DHT22;2331;48.806;9.140;2023-04-24T02:57:08;13.90;1.00
4637;DHT22;2331;48.806;9.140;2023-04-24T02:59:35;13.80;1.00
4637;DHT22;2331;48.806;9.140;2023-04-24T03:02:02;13.90;1.00
4637;DHT22;2331;48.806;9.140;2023-04-24T03:04:29;14.00;1.00
4637;DHT22;2331;48.806;9.140;2023-04-24T03:06:57;14.00;1.00
4637;DHT22;2331;48.806;9.140;2023-04-24T03:09:24;14.00;1.00
4637;DHT22;2331;48.806;9.140;2023-04-24T03:11:51;14.00;1.00
4637;DHT22;2331;48.806;9.140;2023-04-24T03:14:17;14.00;1.00
4637;DHT22;2331;48.806;9.140;2023-04-24T03:16:44;14.00;1.00
4637;DHT22;2331;48.806;9.140;2023-04-24T03:19:11;14.00;1.00
4637;DHT22;2331;48.806;9.140;2023-04-24T03:21:39;14.00;1.00
4637;DHT22;2331;48.806;9.140;2023-04-24T03:24:08;13.90;1.00
4637;DHT22;2331;48.806;9.140;2023-04-24T03:26:34;13.90;1.00
4637;DHT22;2331;48.806;9.140;2023-04-24T03:29:01;13.90;1.00
4637;DHT22;2331;48.806;9.140;2023-04-24T03:31:28;13.90;1.00
4637;DHT22;2331;48.806;9.140;2023-04-24T03:33:55;13.90;1.00
4637;DHT22;2331;48.806;9.140;2023-04-24T03:36:22;13.90;1.00
4637;DHT22;2331;48.806;9.140;2023-04-24T03:38:48;13.90;1.00
4637;DHT22;2331;48.806;9.140;2023-04-24T03:41:16;13.80;1.00
4637;DHT22;2331;48.806;9.140;2023-04-24T03:43:44;13.70;1.00
4637;DHT22;2331;48.806;9.140;2023-04-24T03:46:10;13.70;1.00
4637;DHT22;2331;48.806;9.140;2023-04-24T03:48:37;13.60;1.00
4637;DHT22;2331;48.806;9.140;2023-04-24T03:51:04;13.60;1.00
4637;DHT22;2331;48.806;9.140;2023-04-24T03:53:31;13.60;1.00
4637;DHT22;2331;48.806;9.140;2023-04-24T03:55:57;13.60;1.00
4637;DHT22;2331;48.806;9.140;2023-04-24T03:58:26;13.60;1.00
4637;DHT22;2331;48.806;9.140;2023-04-24T04:00:52;13.70;1.00
4637;DHT22;2331;48.806;9.140;2023-04-24T04:03:19;13.60;1.00
4637;DHT22;2331;48.806;9.140;2023-04-24T04:05:46;13.60;1.00
4637;DHT22;2331;48.806;9.140;2023-04-24T04:08:13;13.60;1.00
4637;DHT22;2331;48.806;9.140;2023-04-24T04:10:40;13.60;1.00
4637;DHT22;2331;48.806;9.140;2023-04-24T04:13:06;13.60;1.00
4637;DHT22;2331;48.806;9.140;2023-04-24T04:15:35;13.60;1.00
4637;DHT22;2331;48.806;9.140;2023-04-24T04:18:02;13.50;1.00
4637;DHT22;2331;48.806;9.140;2023-04-24T04:20:29;13.50;1.00
4637;DHT22;2331;48.806;9.140;2023-04-24T04:22:55;13.40;1.00
4637;DHT22;2331;48.806;9.140;2023-04-24T04:25:22;13.10;1.00
4637;DHT22;2331;48.806;9.140;2023-04-24T04:27:49;13.00;1.00
4637;DHT22;2331;48.806;9.140;2023-04-24T04:30:16;12.90;1.00
4637;DHT22;2331;48.806;9.140;2023-04-24T04:32:45;12.90;1.00
4637;DHT22;2331;48.806;9.140;2023-04-24T04:35:11;12.90;1.00
4637;DHT22;2331;48.806;9.140;2023-04-24T04:37:38;12.90;1.00
4637;DHT22;2331;48.806;9.140;2023-04-24T04:40:06;12.90;1.00
4637;DHT22;2331;48.806;9.140;2023-04-24T04:42:37;12.90;1.00
4637;DHT22;2331;48.806;9.140;2023-04-24T04:45:06;12.70;1.00
4637;DHT22;2331;48.806;9.140;2023-04-24T04:47:34;12.60;1.00
4637;DHT22;2331;48.806;9.140;2023-04-24T04:50:03;12.80;1.00
4637;DHT22;2331;48.806;9.140;2023-04-24T04:52:30;12.90;1.00
4637;DHT22;2331;48.806;9.140;2023-04-24T04:54:57;13.00;1.00
4637;DHT22;2331;48.806;9.140;2023-04-24T04:57:24;13.00;1.00
4637;DHT22;2331;48.806;9.140;2023-04-24T04:59:51;13.00;1.00
4637;DHT22;2331;48.806;9.140;2023-04-24T05:02:17;12.90;1.00
4637;DHT22;2331;48.806;9.140;2023-04-24T05:04:44;12.90;1.00
4637;DHT22;2331;48.806;9.140;2023-04-24T05:07:12;13.00;1.00
4637;DHT22;2331;48.806;9.140;2023-04-24T05:09:39;13.00;1.00
4637;DHT22;2331;48.806;9.140;2023-04-24T05:12:06;12.90;1.00
4637;DHT22;2331;48.806;9.140;2023-04-24T05:14:33;12.80;1.00
4637;DHT22;2331;48.806;9.140;2023-04-24T05:17:00;12.70;1.00
4637;DHT22;2331;48.806;9.140;2023-04-24T05:19:27;12.70;1.00
4637;DHT22;2331;48.806;9.140;2023-04-24T05:21:53;12.60;1.00
4637;DHT22;2331;48.806;9.140;2023-04-24T05:24:21;12.70;1.00
4637;DHT22;2331;48.806;9.140;2023-04-24T05:26:48;12.80;1.00
4637;DHT22;2331;48.806;9.140;2023-04-24T05:29:15;12.80;1.00
4637;DHT22;2331;48.806;9.140;2023-04-24T05:31:44;12.90;1.00
4637;DHT22;2331;48.806;9.140;2023-04-24T05:34:11;12.80;1.00
4637;DHT22;2331;48.806;9.140;2023-04-24T05:36:38;12.90;1.00
4637;DHT22;2331;48.806;9.140;2023-04-24T05:39:04;12.80;1.00
4637;DHT22;2331;48.806;9.140;2023-04-24T05:41:33;12.90;1.00
4637;DHT22;2331;48.806;9.140;2023-04-24T05:43:59;12.90;1.00
4637;DHT22;2331;48.806;9.140;2023-04-24T05:46:26;12.80;1.00
4637;DHT22;2331;48.806;9.140;2023-04-24T05:48:53;12.80;1.00
4637;DHT22;2331;48.806;9.140;2023-04-24T05:51:20;12.80;1.00
4637;DHT22;2331;48.806;9.140;2023-04-24T05:53:46;12.80;1.00
4637;DHT22;2331;48.806;9.140;2023-04-24T05:56:13;12.80;1.00
4637;DHT22;2331;48.806;9.140;2023-04-24T05:58:42;12.90;1.00
4637;DHT22;2331;48.806;9.140;2023-04-24T06:01:09;12.90;1.00
4637;DHT22;2331;48.806;9.140;2023-04-24T06:03:37;12.80;1.00
4637;DHT22;2331;48.806;9.140;2023-04-24T06:06:05;12.90;1.00
4637;DHT22;2331;48.806;9.140;2023-04-24T06:08:32;12.90;1.00
4637;DHT22;2331;48.806;9.140;2023-04-24T06:10:59;12.90;1.00
4637;DHT22;2331;48.806;9.140;2023-04-24T06:13:26;12.80;1.00
4637;DHT22;2331;48.806;9.140;2023-04-24T06:15:54;12.80;1.00
4637;DHT22;2331;48.806;9.140;2023-04-24T06:18:21;12.80;1.00
4637;DHT22;2331;48.806;9.140;2023-04-24T06:20:48;12.80;1.00
4637;DHT22;2331;48.806;9.140;2023-04-24T06:23:15;12.80;1.00
4637;DHT22;2331;48.806;9.140;2023-04-24T06:25:41;12.80;1.00
4637;DHT22;2331;48.806;9.140;2023-04-24T06:28:08;12.80;1.00
4637;DHT22;2331;48.806;9.140;2023-04-24T06:30:35;12.90;1.00
4637;DHT22;2331;48.806;9.140;2023-04-24T06:33:03;12.80;1.00
4637;DHT22;2331;48.806;9.140;2023-04-24T06:35:30;12.90;1.00
4637;DHT22;2331;48.806;9.140;2023-04-24T06:37:57;13.00;1.00
4637;DHT22;2331;48.806;9.140;2023-04-24T06:40:23;12.90;1.00
4637;DHT22;2331;48.806;9.140;2023-04-24T06:42:50;12.90;1.00
4637;DHT22;2331;48.806;9.140;2023-04-24T06:45:17;13.00;1.00
4637;DHT22;2331;48.806;9.140;2023-04-24T06:47:44;12.90;1.00
4637;DHT22;2331;48.806;9.140;2023-04-24T06:50:12;12.90;1.00
4637;DHT22;2331;48.806;9.140;2023-04-24T06:52:40;13.00;1.00
4637;DHT22;2331;48.806;9.140;2023-04-24T06:55:07;13.10;1.00
4637;DHT22;2331;48.806;9.140;2023-04-24T06:57:35;13.10;1.00
4637;DHT22;2331;48.806;9.140;2023-04-24T07:00:03;13.20;1.00
4637;DHT22;2331;48.806;9.140;2023-04-24T07:02:30;13.30;1.00
4637;DHT22;2331;48.806;9.140;2023-04-24T07:04:57;13.20;1.00
4637;DHT22;2331;48.806;9.140;2023-04-24T07:07:25;13.30;1.00
4637;DHT22;2331;48.806;9.140;2023-04-24T07:09:52;13.30;1.00
4637;DHT22;2331;48.806;9.140;2023-04-24T07:12:19;13.30;1.00
4637;DHT22;2331;48.806;9.140;2023-04-24T07:14:47;13.40;1.00
4637;DHT22;2331;48.806;9.140;2023-04-24T07:17:14;13.40;1.00
4637;DHT22;2331;48.806;9.140;2023-04-24T07:19:41;13.40;1.00
4637;DHT22;2331;48.806;9.140;2023-04-24T07:22:08;13.50;1.00
4637;DHT22;2331;48.806;9.140;2023-04-24T07:24:38;13.50;1.00
4637;DHT22;2331;48.806;9.140;2023-04-24T07:27:05;13.40;1.00
4637;DHT22;2331;48.806;9.140;2023-04-24T07:29:31;13.20;1.00
4637;DHT22;2331;48.806;9.140;2023-04-24T07:31:58;13.30;1.00
4637;DHT22;2331;48.806;9.140;2023-04-24T07:34:26;13.30;1.00
4637;DHT22;2331;48.806;9.140;2023-04-24T07:36:52;13.40;1.00
4637;DHT22;2331;48.806;9.140;2023-04-24T07:39:19;13.40;1.00
4637;DHT22;2331;48.806;9.140;2023-04-24T07:41:47;13.40;1.00
4637;DHT22;2331;48.806;9.140;2023-04-24T07:44:14;13.40;1.00
4637;DHT22;2331;48.806;9.140;2023-04-24T07:46:41;13.50;1.00
4637;DHT22;2331;48.806;9.140;2023-04-24T07:49:08;13.50;1.00
4637;DHT22;2331;48.806;9.140;2023-04-24T07:51:34;13.40;1.00
4637;DHT22;2331;48.806;9.140;2023-04-24T07:54:03;13.40;1.00
4637;DHT22;2331;48.806;9.140;2023-04-24T07:56:31;13.40;1.00
4637;DHT22;2331;48.806;9.140;2023-04-24T07:58:59;13.20;1.00
4637;DHT22;2331;48.806;9.140;2023-04-24T08:01:27;13.20;1.00
4637;DHT22;2331;48.806;9.140;2023-04-24T08:03:54;13.20;1.00
4637;DHT22;2331;48.806;9.140;2023-04-24T08:06:21;13.20;1.00
4637;DHT22;2331;48.806;9.140;2023-04-24T08:08:47;13.10;1.00
4637;DHT22;2331;48.806;9.140;2023-04-24T08:11:15;13.10;1.00
4637;DHT22;2331;48.806;9.140;2023-04-24T08:13:41;13.20;1.00
4637;DHT22;2331;48.806;9.140;2023-04-24T08:16:10;13.40;1.00
4637;DHT22;2331;48.806;9.140;2023-04-24T08:18:36;13.50;1.00
4637;DHT22;2331;48.806;9.140;2023-04-24T08:21:06;13.40;1.00
4637;DHT22;2331;48.806;9.140;2023-04-24T08:23:33;13.60;1.00
4637;DHT22;2331;48.806;9.140;2023-04-24T08:26:00;13.50;1.00
4637;DHT22;2331;48.806;9.140;2023-04-24T08:28:27;13.60;1.00
4637;DHT22;2331;48.806;9.140;2023-04-24T08:30:53;13.70;1.00
4637;DHT22;2331;48.806;9.140;2023-04-24T08:33:23;13.70;1.00
4637;DHT22;2331;48.806;9.140;2023-04-24T08:35:50;13.60;1.00
4637;DHT22;2331;48.806;9.140;2023-04-24T08:38:17;13.60;1.00
4637;DHT22;2331;48.806;9.140;2023-04-24T08:40:44;13.60;1.00
4637;DHT22;2331;48.806;9.140;2023-04-24T08:43:13;13.70;1.00
4637;DHT22;2331;48.806;9.140;2023-04-24T08:45:41;13.70;1.00
4637;DHT22;2331;48.806;9.140;2023-04-24T08:48:08;13.60;1.00
4637;DHT22;2331;48.806;9.140;2023-04-24T08:50:37;13.80;1.00
4637;DHT22;2331;48.806;9.140;2023-04-24T08:53:07;13.70;1.00
4637;DHT22;2331;48.806;9.140;2023-04-24T08:55:35;13.70;1.00
4637;DHT22;2331;48.806;9.140;2023-04-24T08:58:02;13.80;1.00
4637;DHT22;2331;48.806;9.140;2023-04-24T09:00:30;13.90;1.00
4637;DHT22;2331;48.806;9.140;2023-04-24T09:02:57;14.00;1.00
4637;DHT22;2331;48.806;9.140;2023-04-24T09:05:25;13.90;1.00
4637;DHT22;2331;48.806;9.140;2023-04-24T09:07:56;14.00;1.00
4637;DHT22;2331;48.806;9.140;2023-04-24T09:10:24;13.80;1.00
4637;DHT22;2331;48.806;9.140;2023-04-24T09:13:01;13.60;1.00
4637;DHT22;2331;48.806;9.140;2023-04-24T09:15:28;13.70;1.00
4637;DHT22;2331;48.806;9.140;2023-04-24T09:17:55;13.40;1.00
4637;DHT22;2331;48.806;9.140;2023-04-24T09:20:22;13.20;1.00
4637;DHT22;2331;48.806;9.140;2023-04-24T09:22:55;13.10;1.00
4637;DHT22;2331;48.806;9.140;2023-04-24T09:25:30;12.90;1.00
4637;DHT22;2331;48.806;9.140;2023-04-24T09:28:00;12.90;1.00
4637;DHT22;2331;48.806;9.140;2023-04-24T09:30:27;12.80;1.00
4637;DHT22;2331;48.806;9.140;2023-04-24T09:33:12;12.90;1.00
4637;DHT22;2331;48.806;9.140;2023-04-24T09:35:41;12.90;1.00
4637;DHT22;2331;48.806;9.140;2023-04-24T09:38:09;12.70;1.00
4637;DHT22;2331;48.806;9.140;2023-04-24T09:40:36;12.80;1.00
4637;DHT22;2331;48.806;9.140;2023-04-24T09:43:03;13.00;1.00
4637;DHT22;2331;48.806;9.140;2023-04-24T09:45:35;13.20;1.00
4637;DHT22;2331;48.806;9.140;2023-04-24T09:48:03;13.20;1.00
4637;DHT22;2331;48.806;9.140;2023-04-24T09:50:31;13.20;1.00
4637;DHT22;2331;48.806;9.140;2023-04-24T09:53:02;13.20;1.00
4637;DHT22;2331;48.806;9.140;2023-04-24T09:55:31;13.10;1.00
4637;DHT22;2331;48.806;9.140;2023-04-24T09:57:59;13.20;1.00
4637;DHT22;2331;48.806;9.140;2023-04-24T10:00:27;13.30;1.00
4637;DHT22;2331;48.806;9.140;2023-04-24T10:02:58;13.20;1.00
4637;DHT22;2331;48.806;9.140;2023-04-24T10:05:28;13.40;1.00
4637;DHT22;2331;48.806;9.140;2023-04-24T10:07:57;13.20;1.00
4637;DHT22;2331;48.806;9.140;2023-04-24T10:10:24;13.30;1.00
4637;DHT22;2331;48.806;9.140;2023-04-24T10:12:52;13.20;1.00
4637;DHT22;2331;48.806;9.140;2023-04-24T10:15:20;13.30;1.00
4637;DHT22;2331;48.806;9.140;2023-04-24T10:17:48;13.50;1.00
4637;DHT22;2331;48.806;9.140;2023-04-24T10:20:18;13.40;1.00
4637;DHT22;2331;48.806;9.140;2023-04-24T10:22:47;13.60;1.00
4637;DHT22;2331;48.806;9.140;2023-04-24T10:25:18;13.80;1.00
4637;DHT22;2331;48.806;9.140;2023-04-24T10:27:46;13.80;1.00
4637;DHT22;2331;48.806;9.140;2023-04-24T10:30:15;13.90;1.00
4637;DHT22;2331;48.806;9.140;2023-04-24T10:32:42;14.10;1.00
4637;DHT22;2331;48.806;9.140;2023-04-24T10:35:11;14.10;1.00
4637;DHT22;2331;48.806;9.140;2023-04-24T10:37:42;14.00;1.00
4637;DHT22;2331;48.806;9.140;2023-04-24T10:40:10;13.80;1.00
4637;DHT22;2331;48.806;9.140;2023-04-24T10:42:40;13.90;1.00
4637;DHT22;2331;48.806;9.140;2023-04-24T10:45:17;14.00;1.00
4637;DHT22;2331;48.806;9.140;2023-04-24T10:47:52;14.10;1.00
4637;DHT22;2331;48.806;9.140;2023-04-24T10:50:19;14.00;1.00
4637;DHT22;2331;48.806;9.140;2023-04-24T10:52:46;14.10;1.00
4637;DHT22;2331;48.806;9.140;2023-04-24T10:55:14;13.90;1.00
4637;DHT22;2331;48.806;9.140;2023-04-24T10:58:01;14.00;1.00
4637;DHT22;2331;48.806;9.140;2023-04-24T11:00:30;13.90;1.00
4637;DHT22;2331;48.806;9.140;2023-04-24T11:02:57;13.80;1.00
4637;DHT22;2331;48.806;9.140;2023-04-24T11:05:50;13.70;1.00
4637;DHT22;2331;48.806;9.140;2023-04-24T11:08:23;13.70;1.00
4637;DHT22;2331;48.806;9.140;2023-04-24T11:10:56;13.80;1.00
4637;DHT22;2331;48.806;9.140;2023-04-24T11:13:24;13.80;1.00
4637;DHT22;2331;48.806;9.140;2023-04-24T11:16:15;13.70;1.00
4637;DHT22;2331;48.806;9.140;2023-04-24T11:18:43;13.60;1.00
4637;DHT22;2331;48.806;9.140;2023-04-24T11:21:17;13.60;1.00
4637;DHT22;2331;48.806;9.140;2023-04-24T11:23:45;13.80;1.00
4637;DHT22;2331;48.806;9.140;2023-04-24T11:26:12;13.60;1.00
4637;DHT22;2331;48.806;9.140;2023-04-24T11:28:47;13.90;1.00
4637;DHT22;2331;48.806;9.140;2023-04-24T11:31:39;13.80;1.00
4637;DHT22;2331;48.806;9.140;2023-04-24T11:34:11;13.80;1.00
4637;DHT22;2331;48.806;9.140;2023-04-24T11:36:38;14.20;1.00
4637;DHT22;2331;48.806;9.140;2023-04-24T11:39:06;14.20;1.00
4637;DHT22;2331;48.806;9.140;2023-04-24T11:41:33;14.20;1.00
4637;DHT22;2331;48.806;9.140;2023-04-24T11:44:01;14.20;1.00
4637;DHT22;2331;48.806;9.140;2023-04-24T11:46:29;14.00;1.00
4637;DHT22;2331;48.806;9.140;2023-04-24T11:48:59;14.20;1.00
4637;DHT22;2331;48.806;9.140;2023-04-24T11:51:27;14.10;1.00
4637;DHT22;2331;48.806;9.140;2023-04-24T11:53:54;13.90;1.00
4637;DHT22;2331;48.806;9.140;2023-04-24T11:56:21;14.00;1.00
4637;DHT22;2331;48.806;9.140;2023-04-24T11:58:48;14.00;1.00
4637;DHT22;2331;48.806;9.140;2023-04-24T12:01:18;14.20;1.00
4637;DHT22;2331;48.806;9.140;2023-04-24T12:03:48;14.40;1.00
4637;DHT22;2331;48.806;9.140;2023-04-24T12:06:17;14.60;1.00
4637;DHT22;2331;48.806;9.140;2023-04-24T12:08:48;14.60;1.00
4637;DHT22;2331;48.806;9.140;2023-04-24T12:11:16;14.60;1.00
4637;DHT22;2331;48.806;9.140;2023-04-24T12:13:44;14.50;1.00
4637;DHT22;2331;48.806;9.140;2023-04-24T12:16:11;14.60;1.00
4637;DHT22;2331;48.806;9.140;2023-04-24T12:18:42;14.50;1.00
4637;DHT22;2331;48.806;9.140;2023-04-24T12:21:20;14.60;1.00
4637;DHT22;2331;48.806;9.140;2023-04-24T12:23:47;14.40;1.00
4637;DHT22;2331;48.806;9.140;2023-04-24T12:26:17;14.40;1.00
4637;DHT22;2331;48.806;9.140;2023-04-24T12:28:46;14.40;1.00
4637;DHT22;2331;48.806;9.140;2023-04-24T12:31:13;14.30;1.00
4637;DHT22;2331;48.806;9.140;2023-04-24T12:33:40;14.40;1.00
4637;DHT22;2331;48.806;9.140;2023-04-24T12:36:10;14.20;1.00
4637;DHT22;2331;48.806;9.140;2023-04-24T12:38:39;14.10;1.00
4637;DHT22;2331;48.806;9.140;2023-04-24T12:41:11;14.00;1.00
4637;DHT22;2331;48.806;9.140;2023-04-24T12:43:38;14.00;1.00
4637;DHT22;2331;48.806;9.140;2023-04-24T12:46:16;14.20;1.00
4637;DHT22;2331;48.806;9.140;2023-04-24T12:48:43;14.20;1.00
4637;DHT22;2331;48.806;9.140;2023-04-24T12:51:10;14.30;1.00
4637;DHT22;2331;48.806;9.140;2023-04-24T12:53:36;14.40;1.00
4637;DHT22;2331;48.806;9.140;2023-04-24T12:56:05;14.20;1.00
4637;DHT22;2331;48.806;9.140;2023-04-24T12:58:31;14.30;1.00
4637;DHT22;2331;48.806;9.140;2023-04-24T13:00:58;14.10;1.00
4637;DHT22;2331;48.806;9.140;2023-04-24T13:03:26;13.50;1.00
4637;DHT22;2331;48.806;9.140;2023-04-24T13:05:53;13.70;1.00
4637;DHT22;2331;48.806;9.140;2023-04-24T13:08:19;13.60;1.00
4637;DHT22;2331;48.806;9.140;2023-04-24T13:10:46;13.70;1.00
4637;DHT22;2331;48.806;9.140;2023-04-24T13:13:14;13.90;1.00
4637;DHT22;2331;48.806;9.140;2023-04-24T13:15:41;14.10;1.00
4637;DHT22;2331;48.806;9.140;2023-04-24T13:18:08;14.30;1.00
4637;DHT22;2331;48.806;9.140;2023-04-24T13:20:37;14.30;1.00
4637;DHT22;2331;48.806;9.140;2023-04-24T13:23:06;14.30;1.00
4637;DHT22;2331;48.806;9.140;2023-04-24T13:25:35;14.50;1.00
4637;DHT22;2331;48.806;9.140;2023-04-24T13:28:02;14.20;1.00
4637;DHT22;2331;48.806;9.140;2023-04-24T13:30:31;14.30;1.00
4637;DHT22;2331;48.806;9.140;2023-04-24T13:32:58;14.10;1.00
4637;DHT22;2331;48.806;9.140;2023-04-24T13:35:24;14.30;1.00
4637;DHT22;2331;48.806;9.140;2023-04-24T13:37:51;14.20;1.00
4637;DHT22;2331;48.806;9.140;2023-04-24T13:40:18;14.20;1.00
4637;DHT22;2331;48.806;9.140;2023-04-24T13:42:45;14.30;1.00
4637;DHT22;2331;48.806;9.140;2023-04-24T13:45:16;14.20;1.00
4637;DHT22;2331;48.806;9.140;2023-04-24T13:47:46;14.10;1.00
4637;DHT22;2331;48.806;9.140;2023-04-24T13:50:12;13.70;1.00
4637;DHT22;2331;48.806;9.140;2023-04-24T13:52:39;13.60;1.00
4637;DHT22;2331;48.806;9.140;2023-04-24T13:55:07;13.60;1.00
4637;DHT22;2331;48.806;9.140;2023-04-24T13:57:34;13.70;1.00
4637;DHT22;2331;48.806;9.140;2023-04-24T14:00:00;13.80;1.00
4637;DHT22;2331;48.806;9.140;2023-04-24T14:02:29;13.90;1.00
4637;DHT22;2331;48.806;9.140;2023-04-24T14:04:57;13.90;1.00
4637;DHT22;2331;48.806;9.140;2023-04-24T14:07:24;14.10;1.00
4637;DHT22;2331;48.806;9.140;2023-04-24T14:09:51;14.10;1.00
4637;DHT22;2331;48.806;9.140;2023-04-24T14:12:18;14.20;1.00
4637;DHT22;2331;48.806;9.140;2023-04-24T14:14:46;14.30;1.00
4637;DHT22;2331;48.806;9.140;2023-04-24T14:17:13;14.40;1.00
4637;DHT22;2331;48.806;9.140;2023-04-24T14:19:40;14.30;1.00
4637;DHT22;2331;48.806;9.140;2023-04-24T14:22:09;14.50;1.00
4637;DHT22;2331;48.806;9.140;2023-04-24T14:24:36;14.40;1.00
4637;DHT22;2331;48.806;9.140;2023-04-24T14:27:02;14.50;1.00
4637;DHT22;2331;48.806;9.140;2023-04-24T14:29:29;14.50;1.00
4637;DHT22;2331;48.806;9.140;2023-04-24T14:31:56;14.40;1.00
4637;DHT22;2331;48.806;9.140;2023-04-24T14:34:23;14.70;1.00
4637;DHT22;2331;48.806;9.140;2023-04-24T14:36:49;14.60;1.00
4637;DHT22;2331;48.806;9.140;2023-04-24T14:39:17;14.60;1.00
4637;DHT22;2331;48.806;9.140;2023-04-24T14:41:44;14.40;1.00
4637;DHT22;2331;48.806;9.140;2023-04-24T14:44:11;14.50;1.00
4637;DHT22;2331;48.806;9.140;2023-04-24T14:46:38;14.50;1.00
4637;DHT22;2331;48.806;9.140;2023-04-24T14:49:04;14.40;1.00
4637;DHT22;2331;48.806;9.140;2023-04-24T14:51:35;14.40;1.00
4637;DHT22;2331;48.806;9.140;2023-04-24T14:54:01;14.30;1.00
4637;DHT22;2331;48.806;9.140;2023-04-24T14:56:29;14.30;1.00
4637;DHT22;2331;48.806;9.140;2023-04-24T14:58:56;14.40;1.00
4637;DHT22;2331;48.806;9.140;2023-04-24T15:01:23;14.50;1.00
4637;DHT22;2331;48.806;9.140;2023-04-24T15:03:50;14.50;1.00
4637;DHT22;2331;48.806;9.140;2023-04-24T15:06:17;14.60;1.00
4637;DHT22;2331;48.806;9.140;2023-04-24T15:08:45;14.50;1.00
4637;DHT22;2331;48.806;9.140;2023-04-24T15:11:12;14.40;1.00
4637;DHT22;2331;48.806;9.140;2023-04-24T15:13:40;14.50;1.00
4637;DHT22;2331;48.806;9.140;2023-04-24T15:16:07;14.60;1.00
4637;DHT22;2331;48.806;9.140;2023-04-24T15:18:35;14.70;1.00
4637;DHT22;2331;48.806;9.140;2023-04-24T15:21:01;14.70;1.00
4637;DHT22;2331;48.806;9.140;2023-04-24T15:23:28;14.80;1.00
4637;DHT22;2331;48.806;9.140;2023-04-24T15:25:55;14.70;1.00
4637;DHT22;2331;48.806;9.140;2023-04-24T15:28:23;14.80;1.00
4637;DHT22;2331;48.806;9.140;2023-04-24T15:30:52;14.80;1.00
4637;DHT22;2331;48.806;9.140;2023-04-24T15:33:19;14.40;1.00
4637;DHT22;2331;48.806;9.140;2023-04-24T15:35:47;14.20;1.00
4637;DHT22;2331;48.806;9.140;2023-04-24T15:38:15;14.10;1.00
4637;DHT22;2331;48.806;9.140;2023-04-24T15:40:42;14.10;1.00
4637;DHT22;2331;48.806;9.140;2023-04-24T15:43:10;14.00;1.00
4637;DHT22;2331;48.806;9.140;2023-04-24T15:45:37;14.00;1.00
4637;DHT22;2331;48.806;9.140;2023-04-24T15:48:05;13.90;1.00
4637;DHT22;2331;48.806;9.140;2023-04-24T15:50:32;13.90;1.00
4637;DHT22;2331;48.806;9.140;2023-04-24T15:52:58;13.80;1.00
4637;DHT22;2331;48.806;9.140;2023-04-24T15:55:26;13.90;1.00
4637;DHT22;2331;48.806;9.140;2023-04-24T15:57:53;13.90;1.00
4637;DHT22;2331;48.806;9.140;2023-04-24T16:00:20;13.90;1.00
4637;DHT22;2331;48.806;9.140;2023-04-24T16:02:47;13.90;1.00
4637;DHT22;2331;48.806;9.140;2023-04-24T16:05:17;14.00;1.00
4637;DHT22;2331;48.806;9.140;2023-04-24T16:07:44;13.90;1.00
4637;DHT22;2331;48.806;9.140;2023-04-24T16:10:11;14.00;1.00
4637;DHT22;2331;48.806;9.140;2023-04-24T16:12:38;14.10;1.00
4637;DHT22;2331;48.806;9.140;2023-04-24T16:15:06;14.10;1.00
4637;DHT22;2331;48.806;9.140;2023-04-24T16:17:32;14.30;1.00
4637;DHT22;2331;48.806;9.140;2023-04-24T16:19:59;14.50;1.00